CheckWX is a tool to help pilots better visualize weather data.  It is not intended as a substitute for an official pre-flight weather briefing.

23:34:30 UTC

KNFW METAR
Fort Worth NAS JRB (Carswell Field) Airport
Fort Worth, Texas, USA
Current

43 mins ago

KNFW 012252Z 16013KT 10SM SCT220 BKN300 21/11 A2988 RMK AO2 SLP101 T02110111 VISNO N $
Observed
Apr-1 @ 22:52 UTC
Wind
  • 160° at 13 KTS
Visibility
10 SM
Flight Rules
VFR
Cloud Levels
  • Scattered at 22,000' AGL
  • Broken at 30,000' AGL
Temperature
21°C / 70°F
Dewpoint
11°C / 52°F
Humidity
53%
Altimeter
29.88" Hg
Pressure
1011.82 hPa
Previous

2 hours ago

KNFW 012152Z 16012KT 10SM SCT200 BKN300 22/12 A2988 RMK AO2 SLP101 T02170117 VISNO N $
Observed
Apr-1 @ 21:52 UTC
Wind
  • 160° at 12 KTS
Visibility
10 SM
Flight Rules
VFR
Cloud Levels
  • Scattered at 20,000' AGL
  • Broken at 30,000' AGL
Temperature
22°C / 72°F
Dewpoint
12°C / 54°F
Humidity
53%
Altimeter
29.88" Hg
Pressure
1011.82 hPa
Previous

3 hours ago

KNFW 012052Z 16015G19KT 10SM BKN200 BKN300 21/11 A2990 RMK AO2 SLP109 T02110111 58030 VISNO N $
Observed
Apr-1 @ 20:52 UTC
Wind
  • 160° at 15 KTS
  • Gusting to 19 KTS
Visibility
10 SM
Flight Rules
VFR
Cloud Levels
  • Broken at 20,000' AGL
  • Broken at 30,000' AGL
Temperature
21°C / 70°F
Dewpoint
11°C / 52°F
Humidity
53%
Altimeter
29.9" Hg
Pressure
1012.52 hPa